Time;durP1;ratioP1;P1;durP2;ratioP2;P2;SDS_P1;SDS_P2;PMS_P1;PMS_P2;Temp;Humidity;BMP_temperature;BMP_pressure;BME280_temperature;BME280_humidity;BME280_pressure;Samples;Min_cycle;Max_cycle;Signal;HPM_P1;HPM_P2
2022/12/31 00:00:45;;;;;;;3.25;1.90;;;12.40;99.90;;;;;;5061002;28;20031;-89
2022/12/31 00:03:14;;;;;;;3.05;2.10;;;12.40;99.90;;;;;;5074652;28;20041;-89
2022/12/31 00:05:40;;;;;;;3.33;2.00;;;12.50;99.90;;;;;;5076026;28;20032;-89
2022/12/31 00:08:08;;;;;;;3.63;2.00;;;12.50;99.90;;;;;;5077052;28;20118;-88
2022/12/31 00:10:40;;;;;;;2.60;2.10;;;12.50;99.90;;;;;;5076545;28;20451;-88
2022/12/31 00:13:10;;;;;;;2.05;1.70;;;12.50;99.90;;;;;;5076910;28;20063;-88
2022/12/31 00:15:37;;;;;;;2.65;1.70;;;12.50;99.90;;;;;;5076637;28;20345;-90
2022/12/31 00:18:11;;;;;;;2.38;1.10;;;12.50;99.90;;;;;;5076183;28;20020;-92
2022/12/31 00:20:40;;;;;;;1.70;1.00;;;12.50;99.90;;;;;;5061227;28;20166;-89
2022/12/31 00:23:07;;;;;;;1.15;0.60;;;12.50;99.90;;;;;;5073177;28;20122;-90
2022/12/31 00:25:36;;;;;;;1.42;0.55;;;12.40;99.90;;;;;;5070553;28;20036;-89
2022/12/31 00:28:06;;;;;;;1.70;0.60;;;12.40;99.90;;;;;;5074748;28;20020;-89
2022/12/31 00:30:56;;;;;;;0.88;0.55;;;12.40;99.90;;;;;;5056912;28;20479;-91
2022/12/31 00:33:27;;;;;;;0.77;0.40;;;12.30;99.90;;;;;;5075039;28;20036;-89
2022/12/31 00:35:52;;;;;;;0.70;0.40;;;12.30;99.90;;;;;;5057664;28;20081;-88
2022/12/31 00:38:18;;;;;;;1.80;0.50;;;12.30;99.90;;;;;;5055785;28;20036;-90
2022/12/31 00:40:44;;;;;;;1.35;0.55;;;12.30;99.90;;;;;;5070987;28;20028;-89
2022/12/31 00:43:10;;;;;;;0.93;0.50;;;12.30;99.90;;;;;;5074548;28;20137;-88
2022/12/31 00:45:35;;;;;;;2.33;0.50;;;12.30;99.90;;;;;;5075619;28;20357;-88
2022/12/31 00:48:01;;;;;;;0.88;0.60;;;12.30;99.90;;;;;;5075236;28;20119;-88
2022/12/31 00:50:27;;;;;;;1.48;0.85;;;12.30;99.90;;;;;;5075146;28;20032;-88
2022/12/31 00:52:52;;;;;;;2.20;0.98;;;12.20;99.90;;;;;;5074575;28;20032;-88
2022/12/31 00:55:19;;;;;;;1.52;0.80;;;12.20;99.90;;;;;;5071872;28;20020;-90
2022/12/31 00:57:45;;;;;;;2.67;1.10;;;12.10;99.90;;;;;;5093435;28;20093;-89
2022/12/31 01:00:17;;;;;;;2.40;1.30;;;12.10;99.90;;;;;;5064256;28;20456;-88
2022/12/31 01:02:43;;;;;;;2.40;1.30;;;12.10;99.90;;;;;;5070885;28;20059;-89
2022/12/31 01:05:08;;;;;;;2.40;1.50;;;12.00;99.90;;;;;;5093846;28;20070;-88
2022/12/31 01:07:37;;;;;;;2.03;1.40;;;12.00;99.90;;;;;;5075753;28;20035;-86
2022/12/31 01:10:04;;;;;;;2.67;1.40;;;12.00;99.90;;;;;;5075741;28;20028;-88
2022/12/31 01:12:29;;;;;;;1.90;1.52;;;12.00;99.90;;;;;;5075592;28;20027;-88
2022/12/31 01:14:55;;;;;;;2.55;1.90;;;12.00;99.90;;;;;;5075086;28;20348;-89
2022/12/31 01:17:33;;;;;;;3.28;2.13;;;12.00;99.90;;;;;;5093181;28;20024;-89
2022/12/31 01:20:02;;;;;;;2.60;1.60;;;11.90;99.90;;;;;;5093299;28;20439;-89
2022/12/31 01:22:27;;;;;;;2.15;1.55;;;11.90;99.90;;;;;;5061016;28;20384;-88
2022/12/31 01:25:02;;;;;;;3.47;1.50;;;11.90;99.90;;;;;;5073614;28;20029;-89
2022/12/31 01:27:28;;;;;;;3.65;1.67;;;11.90;99.90;;;;;;5072851;28;20028;-89
2022/12/31 01:29:55;;;;;;;3.22;1.40;;;11.90;99.90;;;;;;5075466;28;20061;-89
2022/12/31 01:32:21;;;;;;;2.22;1.23;;;11.90;99.90;;;;;;5093324;28;20365;-88
2022/12/31 01:34:49;;;;;;;2.08;1.50;;;11.90;99.90;;;;;;5092628;28;20040;-89
2022/12/31 01:37:22;;;;;;;2.55;1.40;;;11.80;99.90;;;;;;5074647;28;20031;-89
2022/12/31 01:39:50;;;;;;;1.40;1.17;;;11.80;99.90;;;;;;5093173;28;20032;-88
2022/12/31 01:42:22;;;;;;;2.17;1.42;;;11.80;99.90;;;;;;5075153;28;20301;-87
2022/12/31 01:44:52;;;;;;;1.70;1.20;;;11.80;99.90;;;;;;5075043;28;20028;-89
2022/12/31 01:47:31;;;;;;;2.90;1.33;;;11.80;99.90;;;;;;5074183;28;20082;-89
2022/12/31 01:50:07;;;;;;;2.03;1.00;;;11.80;99.90;;;;;;5074610;28;20030;-91
2022/12/31 01:52:40;;;;;;;1.92;1.00;;;11.80;99.90;;;;;;5058146;28;20036;-90
2022/12/31 01:55:18;;;;;;;1.52;1.00;;;11.80;99.90;;;;;;5092609;28;20028;-89
2022/12/31 01:57:46;;;;;;;1.83;1.10;;;11.80;99.90;;;;;;5074426;28;20112;-91
2022/12/31 02:00:15;;;;;;;1.88;1.20;;;11.80;99.90;;;;;;5074731;28;20028;-90
2022/12/31 02:02:41;;;;;;;1.95;1.08;;;11.80;99.90;;;;;;5074482;28;20035;-89
2022/12/31 02:05:17;;;;;;;1.83;1.00;;;11.80;99.90;;;;;;5058144;28;20403;-90
2022/12/31 02:07:47;;;;;;;2.42;1.25;;;11.80;99.90;;;;;;5075120;28;20054;-90
2022/12/31 02:10:13;;;;;;;2.33;1.13;;;11.80;99.90;;;;;;5075602;28;20165;-89
2022/12/31 02:12:39;;;;;;;1.95;1.35;;;11.70;99.90;;;;;;5074557;28;20067;-90
2022/12/31 02:15:08;;;;;;;2.60;1.40;;;11.70;99.90;;;;;;5074240;28;20024;-89
2022/12/31 02:17:46;;;;;;;3.13;1.55;;;11.70;99.90;;;;;;5074005;28;20038;-89
2022/12/31 02:20:49;;;;;;;2.13;1.33;;;11.80;99.90;;;;;;5093074;28;20051;-90
2022/12/31 02:23:52;;;;;;;2.80;1.60;;;11.70;99.90;;;;;;5075000;28;20040;-90
2022/12/31 02:26:44;;;;;;;2.50;1.30;;;11.70;99.90;;;;;;5075040;28;20031;-92
2022/12/31 02:29:12;;;;;;;1.67;1.23;;;11.70;99.90;;;;;;5092491;28;20036;-89
2022/12/31 02:31:47;;;;;;;4.78;1.38;;;11.70;99.90;;;;;;5074606;28;20088;-91
2022/12/31 02:34:27;;;;;;;2.15;1.15;;;11.70;99.90;;;;;;5075918;28;20024;-89
2022/12/31 02:36:55;;;;;;;2.67;1.15;;;11.70;99.90;;;;;;5063417;28;20536;-90
2022/12/31 02:39:24;;;;;;;2.58;1.00;;;11.70;99.90;;;;;;5061573;28;20471;-89
2022/12/31 02:41:52;;;;;;;1.98;1.00;;;11.70;99.90;;;;;;5077240;28;20058;-90
2022/12/31 02:44:34;;;;;;;3.38;1.20;;;11.70;99.90;;;;;;5078216;28;20036;-89
2022/12/31 02:46:59;;;;;;;1.63;1.10;;;11.70;99.90;;;;;;5077797;28;20024;-90
2022/12/31 02:49:51;;;;;;;1.40;0.85;;;11.70;99.90;;;;;;5077269;28;20066;-90
2022/12/31 02:52:22;;;;;;;2.70;1.00;;;11.70;99.90;;;;;;5068022;28;20050;-89
2022/12/31 02:55:20;;;;;;;2.75;1.20;;;11.70;99.90;;;;;;5077634;28;20086;-90
2022/12/31 02:57:47;;;;;;;2.10;1.05;;;11.60;99.90;;;;;;5077986;28;20470;-89
2022/12/31 03:03:01;;;;;;;3.00;1.25;;;11.60;99.90;;;;;;5095421;28;20067;-89
2022/12/31 03:05:31;;;;;;;2.28;1.10;;;11.60;99.90;;;;;;5095616;28;20083;-90
2022/12/31 03:07:56;;;;;;;2.80;1.20;;;11.60;99.90;;;;;;5076894;28;20062;-90
2022/12/31 03:10:22;;;;;;;2.17;1.30;;;11.60;99.90;;;;;;5077275;28;20024;-89
2022/12/31 03:12:49;;;;;;;2.83;1.15;;;11.60;99.90;;;;;;5095861;28;20031;-90
2022/12/31 03:15:28;;;;;;;1.40;0.95;;;11.50;99.90;;;;;;5077671;28;20032;-90
2022/12/31 03:18:07;;;;;;;1.65;0.80;;;11.60;99.90;;;;;;5077988;28;20367;-91
2022/12/31 03:23:31;;;;;;;2.75;1.10;;;11.50;99.90;;;;;;5095309;28;20490;-90
2022/12/31 03:26:02;;;;;;;1.30;0.85;;;11.50;99.90;;;;;;5077422;28;20024;-89
2022/12/31 03:28:30;;;;;;;2.83;1.33;;;11.50;99.90;;;;;;5077456;28;20024;-90
2022/12/31 03:31:16;;;;;;;1.60;1.20;;;11.50;99.90;;;;;;5077548;28;20058;-89
2022/12/31 03:34:00;;;;;;;2.92;1.10;;;11.50;99.90;;;;;;5077618;28;20032;-89
2022/12/31 03:36:28;;;;;;;3.40;1.33;;;11.50;99.90;;;;;;5077471;28;20050;-90
2022/12/31 03:38:54;;;;;;;2.03;0.95;;;11.50;99.90;;;;;;5077191;28;20105;-90
2022/12/31 03:41:19;;;;;;;2.25;1.20;;;11.50;99.90;;;;;;5077474;28;20024;-89
2022/12/31 03:43:45;;;;;;;3.15;1.30;;;11.50;99.90;;;;;;5077285;28;20047;-89
2022/12/31 03:46:11;;;;;;;2.63;1.40;;;11.50;99.90;;;;;;5075943;28;20085;-89
2022/12/31 03:48:38;;;;;;;2.03;1.27;;;11.40;99.90;;;;;;5076985;28;20024;-89
2022/12/31 03:51:05;;;;;;;2.63;1.50;;;11.50;99.90;;;;;;5076878;28;20379;-89
2022/12/31 03:53:31;;;;;;;3.50;1.98;;;11.50;99.90;;;;;;5076860;28;20032;-90
2022/12/31 03:55:56;;;;;;;2.28;1.70;;;11.50;99.90;;;;;;5076699;28;20875;-89
2022/12/31 03:58:22;;;;;;;3.22;2.20;;;11.50;99.90;;;;;;5095417;28;20035;-90
2022/12/31 04:00:50;;;;;;;3.88;2.28;;;11.50;99.90;;;;;;5076613;28;20032;-90
2022/12/31 04:03:17;;;;;;;5.50;2.80;;;11.50;99.90;;;;;;5075755;28;20064;-89
2022/12/31 04:05:51;;;;;;;3.95;2.45;;;11.50;99.90;;;;;;5077122;28;20028;-89
2022/12/31 04:08:17;;;;;;;4.13;2.90;;;11.50;99.90;;;;;;5070392;28;20308;-89
2022/12/31 04:10:42;;;;;;;5.50;3.45;;;11.50;99.90;;;;;;5076426;28;20115;-90
2022/12/31 04:13:08;;;;;;;5.60;3.10;;;11.50;99.90;;;;;;5076536;28;20058;-89
2022/12/31 04:15:34;;;;;;;5.40;3.55;;;11.50;99.90;;;;;;5076563;28;20024;-89
2022/12/31 04:17:59;;;;;;;4.25;2.95;;;11.50;99.90;;;;;;5076330;28;20035;-89
2022/12/31 04:20:31;;;;;;;4.70;3.20;;;11.50;99.90;;;;;;5076621;28;20024;-89
2022/12/31 04:22:57;;;;;;;4.55;3.20;;;11.60;99.90;;;;;;5075957;28;20039;-89
2022/12/31 04:25:22;;;;;;;4.85;3.45;;;11.50;99.90;;;;;;5076527;28;20031;-90
2022/12/31 04:27:48;;;;;;;5.45;3.50;;;11.50;99.90;;;;;;5076208;28;20032;-89
2022/12/31 04:33:35;;;;;;;5.18;3.60;;;11.60;99.90;;;;;;5076728;28;20032;-90
2022/12/31 04:36:18;;;;;;;5.53;3.17;;;11.60;99.90;;;;;;5075806;28;20502;-89
2022/12/31 04:38:44;;;;;;;;;;;11.60;99.90;;;;;;5076944;28;20409;-89
2022/12/31 04:41:15;;;;;;;4.65;3.03;;;11.60;99.90;;;;;;5093904;28;19907;-90
2022/12/31 04:43:43;;;;;;;3.72;2.42;;;11.60;99.90;;;;;;5076401;28;20040;-89
2022/12/31 04:46:09;;;;;;;3.80;2.80;;;11.60;99.90;;;;;;5093969;28;20037;-91
2022/12/31 04:48:35;;;;;;;4.03;2.70;;;11.60;99.90;;;;;;5093761;28;20028;-90
2022/12/31 04:51:03;;;;;;;3.92;3.00;;;11.60;99.90;;;;;;5075308;28;20472;-90
2022/12/31 04:53:29;;;;;;;3.80;2.70;;;11.60;99.90;;;;;;5075887;28;20024;-89
2022/12/31 04:55:55;;;;;;;4.95;3.10;;;11.60;99.90;;;;;;5075683;28;20032;-90
2022/12/31 04:58:21;;;;;;;4.07;2.67;;;11.60;99.90;;;;;;5076459;28;20020;-89
2022/12/31 05:00:49;;;;;;;4.18;2.45;;;11.60;99.90;;;;;;5076164;28;20024;-90
2022/12/31 05:03:16;;;;;;;3.65;2.35;;;11.60;99.90;;;;;;5075620;28;20032;-90
2022/12/31 05:05:42;;;;;;;3.65;2.28;;;11.60;99.90;;;;;;5076088;28;20089;-90
2022/12/31 05:08:10;;;;;;;3.63;2.20;;;11.60;99.90;;;;;;5075879;28;20028;-90
2022/12/31 05:10:40;;;;;;;2.35;1.88;;;11.60;99.90;;;;;;5076160;28;20111;-90
2022/12/31 05:13:05;;;;;;;2.50;1.80;;;11.60;99.90;;;;;;5076047;28;20028;-90
2022/12/31 05:15:36;;;;;;;3.22;2.17;;;11.60;99.90;;;;;;5076412;28;20035;-90
2022/12/31 05:18:14;;;;;;;2.70;1.80;;;11.60;99.90;;;;;;5075272;28;20016;-89
2022/12/31 05:20:40;;;;;;;2.08;1.52;;;11.60;99.90;;;;;;5074989;28;20044;-90
2022/12/31 05:23:06;;;;;;;2.47;1.67;;;11.60;99.90;;;;;;5075436;28;20051;-88
2022/12/31 05:25:32;;;;;;;1.98;1.50;;;11.70;99.90;;;;;;5075742;28;20020;-89
2022/12/31 05:28:00;;;;;;;1.65;1.20;;;11.70;99.90;;;;;;5075798;28;20028;-89
2022/12/31 05:30:32;;;;;;;1.58;1.05;;;11.70;99.90;;;;;;5075909;28;20028;-90
2022/12/31 05:32:58;;;;;;;1.20;0.82;;;11.80;99.90;;;;;;5093774;28;20118;-89
2022/12/31 05:35:24;;;;;;;1.00;0.80;;;11.80;99.90;;;;;;5075840;28;20064;-90
2022/12/31 05:37:51;;;;;;;0.82;0.63;;;11.80;99.90;;;;;;5075878;28;20032;-90
2022/12/31 05:40:17;;;;;;;1.10;0.60;;;11.80;99.90;;;;;;5075777;28;20024;-89
2022/12/31 05:42:43;;;;;;;1.10;0.77;;;11.80;99.90;;;;;;5075823;28;20078;-90
2022/12/31 05:45:38;;;;;;;0.75;0.60;;;11.90;99.90;;;;;;5075605;28;20111;-89
2022/12/31 05:48:46;;;;;;;0.55;0.52;;;11.90;99.90;;;;;;5067162;28;20028;-89
2022/12/31 05:51:12;;;;;;;1.33;0.70;;;11.90;99.90;;;;;;5092659;28;20036;-89
2022/12/31 05:53:38;;;;;;;0.82;0.70;;;11.90;99.90;;;;;;5093724;28;20036;-89
2022/12/31 05:56:04;;;;;;;0.77;0.60;;;11.90;99.90;;;;;;5075050;28;20028;-89
2022/12/31 05:58:30;;;;;;;0.85;0.60;;;11.90;99.90;;;;;;5075451;28;20020;-89
2022/12/31 06:01:26;;;;;;;0.88;0.50;;;11.90;99.90;;;;;;5058876;28;20484;-90
2022/12/31 06:03:53;;;;;;;0.77;0.50;;;11.90;99.90;;;;;;5004442;28;20036;-90
2022/12/31 06:06:31;;;;;;;0.95;0.63;;;11.90;99.90;;;;;;5075639;28;20027;-90
2022/12/31 06:08:56;;;;;;;0.95;0.50;;;12.00;99.90;;;;;;5075169;28;20036;-89
2022/12/31 06:11:29;;;;;;;1.10;0.70;;;11.90;99.90;;;;;;5079291;28;20399;-89
2022/12/31 06:13:57;;;;;;;0.82;0.50;;;11.90;99.90;;;;;;5078204;28;20033;-89
2022/12/31 06:16:31;;;;;;;1.13;0.80;;;12.00;99.90;;;;;;5078984;28;20020;-89
2022/12/31 06:18:57;;;;;;;0.90;0.60;;;12.00;99.90;;;;;;5062422;28;20560;-90
2022/12/31 06:21:37;;;;;;;0.88;0.57;;;11.90;99.90;;;;;;5079428;28;20066;-90
2022/12/31 06:24:03;;;;;;;0.70;0.63;;;11.90;99.90;;;;;;5078462;28;20048;-89
2022/12/31 06:26:28;;;;;;;0.90;0.75;;;12.00;99.90;;;;;;5079284;28;20032;-90
2022/12/31 06:28:54;;;;;;;0.80;0.60;;;12.00;99.90;;;;;;5078916;28;20031;-89
2022/12/31 06:31:22;;;;;;;0.98;0.63;;;12.00;99.90;;;;;;5079099;28;20143;-88
2022/12/31 06:33:50;;;;;;;0.80;0.60;;;12.00;99.90;;;;;;5078989;28;20028;-89
2022/12/31 06:36:20;;;;;;;0.77;0.50;;;12.10;99.90;;;;;;5079052;28;20596;-89
2022/12/31 06:38:46;;;;;;;0.50;0.40;;;12.10;99.90;;;;;;5096977;28;20024;-89
2022/12/31 06:41:15;;;;;;;0.88;0.60;;;12.20;99.90;;;;;;5096427;28;20036;-89
2022/12/31 06:43:44;;;;;;;0.73;0.50;;;12.20;99.90;;;;;;5078217;28;20102;-90
2022/12/31 06:46:14;;;;;;;1.30;0.60;;;12.30;99.90;;;;;;5078639;28;20028;-89
2022/12/31 06:48:42;;;;;;;0.95;0.70;;;12.40;99.90;;;;;;5061778;28;20059;-91
2022/12/31 06:51:17;;;;;;;0.60;0.60;;;12.50;99.90;;;;;;5078529;28;20032;-88
2022/12/31 06:53:45;;;;;;;1.42;0.75;;;12.50;99.90;;;;;;5078118;28;20020;-89
2022/12/31 06:56:24;;;;;;;0.70;0.60;;;12.60;99.90;;;;;;5077680;28;20024;-89
2022/12/31 06:58:50;;;;;;;1.45;0.60;;;12.70;99.90;;;;;;5096387;28;20024;-88
2022/12/31 07:01:34;;;;;;;1.35;0.75;;;12.80;99.90;;;;;;5078266;28;20020;-89
2022/12/31 07:04:25;;;;;;;2.25;0.93;;;12.90;99.90;;;;;;5077662;28;20036;-90
2022/12/31 07:07:02;;;;;;;1.10;0.73;;;12.90;99.90;;;;;;5078543;28;20028;-89
2022/12/31 07:09:49;;;;;;;1.85;0.80;;;13.00;99.90;;;;;;5077696;28;20110;-90
2022/12/31 07:12:32;;;;;;;0.90;0.70;;;13.00;99.90;;;;;;5077590;28;20127;-90
2022/12/31 07:15:05;;;;;;;0.90;0.70;;;13.00;99.90;;;;;;5077714;28;20032;-89
2022/12/31 07:17:53;;;;;;;;;;;13.00;99.90;;;;;;5078093;28;20028;-90
2022/12/31 07:20:20;;;;;;;1.08;0.80;;;13.00;99.90;;;;;;5094854;28;20001;-89
2022/12/31 07:22:46;;;;;;;0.85;0.65;;;13.00;99.90;;;;;;5076710;28;20040;-89
2022/12/31 07:25:27;;;;;;;;;;;;;;;;;;;;;
2022/12/31 07:28:35;;;;;;;1.50;1.08;;;13.10;99.90;;;;;;5079928;28;20034;-89
2022/12/31 07:31:13;;;;;;;2.42;0.90;;;13.10;99.90;;;;;;5075958;28;20028;-89
2022/12/31 07:34:18;;;;;;;1.58;1.08;;;13.00;99.90;;;;;;5077500;28;20028;-89
2022/12/31 07:37:09;;;;;;;3.33;0.80;;;13.10;99.90;;;;;;5077520;28;20016;-90
2022/12/31 07:40:16;;;;;;;1.17;0.88;;;13.10;99.90;;;;;;5077151;28;20017;-90
2022/12/31 07:43:22;;;;;;;1.38;0.80;;;13.00;99.90;;;;;;5009511;28;20048;-89
2022/12/31 07:45:58;;;;;;;1.30;0.73;;;13.10;99.90;;;;;;5076489;28;20139;-90
2022/12/31 07:48:26;;;;;;;1.23;0.88;;;13.10;99.90;;;;;;5094839;28;20486;-90
2022/12/31 07:50:54;;;;;;;1.33;0.90;;;13.10;99.90;;;;;;5076906;28;20085;-89
2022/12/31 07:53:21;;;;;;;1.88;1.27;;;13.10;99.90;;;;;;5076102;28;20038;-90
2022/12/31 07:55:52;;;;;;;2.38;1.23;;;13.10;99.90;;;;;;5077096;28;20456;-89
2022/12/31 07:58:44;;;;;;;2.63;1.50;;;13.10;99.90;;;;;;5076603;28;20036;-90
2022/12/31 08:01:15;;;;;;;3.08;1.73;;;13.10;99.90;;;;;;5076736;28;20469;-89
2022/12/31 08:03:59;;;;;;;2.40;1.50;;;13.10;99.90;;;;;;5076640;28;20028;-88
2022/12/31 08:07:01;;;;;;;3.47;1.58;;;13.10;99.90;;;;;;5077038;28;20459;-88
2022/12/31 08:09:56;;;;;;;3.20;1.30;;;13.20;99.90;;;;;;4993859;28;20083;-90
2022/12/31 08:12:26;;;;;;;3.28;1.20;;;13.30;99.90;;;;;;5076089;28;20036;-90
2022/12/31 08:14:58;;;;;;;4.40;1.40;;;13.40;99.90;;;;;;5077231;28;20030;-89
2022/12/31 08:17:24;;;;;;;3.40;0.90;;;13.40;99.90;;;;;;5076806;28;20060;-90
2022/12/31 08:20:03;;;;;;;;;;;;;;;;;;;;;
2022/12/31 08:23:00;;;;;;;2.47;0.60;;;13.30;99.90;;;;;;5095075;28;20441;-90
2022/12/31 08:25:38;;;;;;;2.13;0.77;;;13.20;99.90;;;;;;5076724;28;20040;-90
2022/12/31 08:28:36;;;;;;;1.92;0.47;;;13.10;99.90;;;;;;5076199;28;20486;-90
2022/12/31 08:31:32;;;;;;;2.13;0.73;;;13.00;99.90;;;;;;5093573;28;20031;-90
2022/12/31 08:34:17;;;;;;;1.13;0.40;;;12.90;99.90;;;;;;5075325;28;20511;-91
2022/12/31 08:37:01;;;;;;;2.97;0.60;;;12.80;99.90;;;;;;5075858;28;20056;-91
2022/12/31 08:39:57;;;;;;;2.25;0.68;;;12.70;99.90;;;;;;5075946;28;20297;-91
2022/12/31 08:42:43;;;;;;;3.25;0.50;;;12.70;99.90;;;;;;5075515;28;20036;-91
2022/12/31 08:45:14;;;;;;;1.95;0.50;;;12.70;99.90;;;;;;5075563;28;20035;-89
2022/12/31 08:47:49;;;;;;;2.15;0.50;;;12.70;99.90;;;;;;5075562;28;20028;-91
2022/12/31 08:50:29;;;;;;;2.72;0.55;;;12.80;99.90;;;;;;5075671;28;20141;-92
2022/12/31 08:53:04;;;;;;;2.22;0.60;;;12.80;99.90;;;;;;5075215;28;20118;-90
2022/12/31 08:55:35;;;;;;;3.58;0.60;;;12.80;99.90;;;;;;5075454;28;20020;-93
2022/12/31 08:58:31;;;;;;;1.30;0.57;;;12.80;99.90;;;;;;5060206;28;20525;-92
2022/12/31 09:01:20;;;;;;;1.98;0.80;;;12.80;99.90;;;;;;5074853;28;20028;-92
2022/12/31 09:07:43;;;;;;;;;;;;;;;;;;;;;
2022/12/31 09:10:34;;;;;;;2.80;1.20;;;12.90;99.90;;;;;;5093339;28;20073;-93
2022/12/31 09:13:37;;;;;;;3.22;0.80;;;12.90;99.90;;;;;;5075826;28;20479;-90
2022/12/31 09:17:03;;;;;;;;;;;;;;;;;;;;;
2022/12/31 09:20:07;;;;;;;2.25;1.10;;;12.90;99.90;;;;;;5031709;28;20021;-93
2022/12/31 09:23:21;;;;;;;;;;;;;;;;;;;;;
2022/12/31 09:26:20;;;;;;;2.25;1.13;;;13.00;99.90;;;;;;5032411;28;20033;-92
2022/12/31 09:32:42;;;;;;;3.85;1.33;;;13.10;99.90;;;;;;5031188;28;20029;-92
2022/12/31 09:36:03;;;;;;;3.30;1.30;;;13.10;99.90;;;;;;5047096;28;20032;-93
2022/12/31 09:38:46;;;;;;;5.57;1.60;;;13.20;99.90;;;;;;5073372;28;20419;-91
2022/12/31 09:41:50;;;;;;;2.83;1.42;;;13.20;99.90;;;;;;5055773;28;20119;-92
2022/12/31 09:45:01;;;;;;;2.13;1.25;;;13.30;99.90;;;;;;4999961;28;20133;-91
2022/12/31 09:48:25;;;;;;;;;;;;;;;;;;;;;
2022/12/31 09:51:20;;;;;;;2.95;1.20;;;13.40;99.90;;;;;;5076954;28;20476;-90
2022/12/31 09:54:15;;;;;;;3.75;1.60;;;13.50;99.90;;;;;;5059287;28;20470;-92
2022/12/31 09:57:18;;;;;;;3.15;1.50;;;13.60;99.90;;;;;;5059039;28;20024;-90
2022/12/31 10:00:16;;;;;;;6.23;1.67;;;13.70;99.90;;;;;;5059245;28;20024;-91
2022/12/31 10:03:16;;;;;;;2.83;1.52;;;13.90;99.90;;;;;;5058766;28;20032;-93
2022/12/31 10:05:52;;;;;;;7.45;1.85;;;14.00;99.90;;;;;;5059033;28;20431;-91
2022/12/31 10:08:23;;;;;;;4.03;1.40;;;14.10;99.90;;;;;;5060028;28;20033;-93
2022/12/31 10:11:15;;;;;;;3.72;1.50;;;14.10;99.90;;;;;;5060358;28;20033;-90
2022/12/31 10:14:24;;;;;;;5.50;1.60;;;14.10;99.90;;;;;;5050528;28;20025;-92
2022/12/31 10:17:09;;;;;;;2.47;1.00;;;14.00;99.90;;;;;;5061532;28;20029;-91
2022/12/31 10:19:56;;;;;;;4.53;1.15;;;14.00;99.90;;;;;;5061660;28;20025;-92
2022/12/31 10:23:02;;;;;;;2.85;1.10;;;14.10;99.90;;;;;;5083623;28;20438;-90
2022/12/31 10:25:39;;;;;;;3.60;1.30;;;14.20;99.90;;;;;;5080794;28;20028;-91
2022/12/31 10:28:25;;;;;;;2.03;1.40;;;14.30;99.90;;;;;;5097508;28;20077;-91
2022/12/31 10:31:11;;;;;;;4.10;1.33;;;14.40;99.90;;;;;;5078848;28;20024;-91
2022/12/31 10:34:10;;;;;;;6.07;1.10;;;14.40;99.90;;;;;;5097189;28;20099;-90
2022/12/31 10:37:11;;;;;;;5.28;1.80;;;14.40;99.90;;;;;;5097196;28;20032;-93
2022/12/31 10:40:01;;;;;;;4.40;1.67;;;14.50;99.90;;;;;;5097352;28;20028;-93
2022/12/31 10:42:29;;;;;;;2.85;1.20;;;14.60;99.90;;;;;;5079222;28;20039;-95
2022/12/31 10:45:30;;;;;;;6.88;1.30;;;14.60;99.90;;;;;;5079894;28;20114;-93
2022/12/31 10:48:37;;;;;;;5.75;1.60;;;14.60;99.90;;;;;;5097797;28;20107;-91
2022/12/31 10:51:20;;;;;;;6.25;1.65;;;14.60;99.90;;;;;;5079712;28;20030;-93
2022/12/31 10:54:24;;;;;;;;;;;;;;;;;;;;;
2022/12/31 10:57:27;;;;;;;3.15;1.20;;;14.70;99.90;;;;;;5096529;28;20024;-93
2022/12/31 11:00:19;;;;;;;3.72;1.60;;;14.70;99.90;;;;;;5078575;28;20032;-92
2022/12/31 11:03:10;;;;;;;6.75;1.40;;;14.70;99.90;;;;;;5078292;28;20035;-92
2022/12/31 11:06:13;;;;;;;6.93;2.08;;;14.70;99.90;;;;;;5078189;28;20112;-92
2022/12/31 11:09:13;;;;;;;4.13;1.63;;;14.80;99.90;;;;;;5078987;28;20078;-92
2022/12/31 11:12:03;;;;;;;12.95;6.68;;;14.70;99.90;;;;;;5078997;28;20028;-93
2022/12/31 11:15:25;;;;;;;;;;;;;;;;;;;;;
2022/12/31 11:18:25;;;;;;;12.40;7.40;;;14.80;99.90;;;;;;5096757;28;20032;-92
2022/12/31 11:21:12;;;;;;;;;;;;;;;;;;;;;
2022/12/31 11:24:30;;;;;;;10.40;6.20;;;14.80;99.90;;;;;;5096135;28;20466;-92
2022/12/31 11:27:15;;;;;;;18.73;14.10;;;14.80;99.90;;;;;;5079783;28;20065;-91
2022/12/31 11:30:38;;;;;;;15.27;11.50;;;14.80;99.90;;;;;;5077922;28;20028;-91
2022/12/31 11:33:43;;;;;;;12.10;9.50;;;14.70;99.90;;;;;;4997368;28;20048;-91
2022/12/31 11:36:33;;;;;;;12.20;7.28;;;14.70;99.90;;;;;;5011596;28;20451;-91
2022/12/31 11:39:29;;;;;;;6.72;3.95;;;14.70;99.90;;;;;;5077136;28;20024;-91
2022/12/31 11:42:28;;;;;;;;;;;;;;;;;;;;;
2022/12/31 11:45:00;;;;;;;9.73;5.95;;;14.60;99.90;;;;;;5087317;28;20036;-91
2022/12/31 11:47:54;;;;;;;9.80;2.80;;;14.60;99.90;;;;;;5077387;28;20077;-91
2022/12/31 11:50:44;;;;;;;;;;;14.60;99.90;;;;;;5076931;28;20136;-91
2022/12/31 11:53:49;;;;;;;9.07;5.25;;;14.60;99.90;;;;;;5077035;28;19907;-89
2022/12/31 11:56:27;;;;;;;5.93;1.90;;;14.60;99.90;;;;;;5046356;28;20068;-91
2022/12/31 11:58:56;;;;;;;4.05;1.58;;;14.70;99.90;;;;;;5086007;28;20029;-92
2022/12/31 12:02:02;;;;;;;5.80;1.70;;;14.70;99.90;;;;;;5077431;28;20118;-93
2022/12/31 12:05:24;;;;;;;;;;;;;;;;;;;;;
2022/12/31 12:08:32;;;;;;;6.45;1.63;;;15.00;99.90;;;;;;5094365;28;20038;-93
2022/12/31 12:11:30;;;;;;;5.30;1.23;;;15.00;99.90;;;;;;5071465;28;20050;-92
2022/12/31 12:13:57;;;;;;;4.88;1.45;;;15.10;99.90;;;;;;5056216;28;20079;-93
2022/12/31 12:17:06;;;;;;;5.82;1.80;;;15.10;99.90;;;;;;5085646;28;20032;-91
2022/12/31 12:19:49;;;;;;;4.70;1.55;;;15.10;99.90;;;;;;5037128;28;20028;-91
2022/12/31 12:23:05;;;;;;;;;;;;;;;;;;;;;
2022/12/31 12:26:25;;;;;;;5.55;1.60;;;15.10;99.90;;;;;;4973585;28;20049;-92
2022/12/31 12:29:37;;;;;;;3.72;1.02;;;14.90;99.90;;;;;;5055252;28;20155;-93
2022/12/31 12:32:21;;;;;;;6.22;1.42;;;14.80;99.90;;;;;;5053524;28;20024;-92
2022/12/31 12:34:56;;;;;;;5.35;1.45;;;14.80;99.90;;;;;;5059831;28;20051;-91
2022/12/31 12:37:42;;;;;;;6.03;2.08;;;14.70;99.90;;;;;;5059221;28;20364;-92
2022/12/31 12:40:27;;;;;;;5.35;1.45;;;14.60;99.90;;;;;;5076127;28;20036;-90
2022/12/31 12:43:09;;;;;;;;;;;;;;;;;;;;;
2022/12/31 12:49:05;;;;;;;16.55;9.90;;;14.40;99.90;;;;;;5072688;28;20372;-91
2022/12/31 12:52:21;;;;;;;;;;;;;;;;;;;;;
2022/12/31 12:55:16;;;;;;;7.57;3.58;;;14.40;99.90;;;;;;5082311;28;20033;-92
2022/12/31 12:58:31;;;;;;;7.28;4.03;;;14.40;99.90;;;;;;5060352;28;20111;-91
2022/12/31 13:01:35;;;;;;;14.15;8.73;;;14.40;99.90;;;;;;5086759;28;20020;-91
2022/12/31 13:07:46;;;;;;;23.23;19.15;;;14.40;99.90;;;;;;5093018;28;20024;-91
2022/12/31 13:18:04;;;;;;;;;;;;;;;;;;;;;
2022/12/31 13:21:06;;;;;;;12.25;5.85;;;14.60;99.90;;;;;;5071245;28;20020;-93
2022/12/31 13:34:27;;;;;;;5.32;2.17;;;14.70;99.90;;;;;;5086850;28;20043;-92
2022/12/31 13:37:29;;;;;;;;;;;;;;;;;;;;;
2022/12/31 13:40:24;;;;;;;8.10;1.52;;;14.60;99.90;;;;;;5089708;28;20053;-92
2022/12/31 13:43:25;;;;;;;4.30;1.33;;;14.40;99.90;;;;;;5066350;28;20426;-91
2022/12/31 13:46:45;;;;;;;10.38;2.45;;;14.40;99.90;;;;;;5056260;28;20384;-92
2022/12/31 13:49:19;;;;;;;6.57;2.22;;;14.40;99.90;;;;;;5089173;28;20032;-92
2022/12/31 13:51:54;;;;;;;5.18;1.95;;;14.30;99.90;;;;;;5062165;28;20468;-91
2022/12/31 13:54:37;;;;;;;6.57;2.03;;;14.30;99.90;;;;;;5070795;28;20028;-91
2022/12/31 14:01:58;;;;;;;8.77;4.40;;;14.20;99.90;;;;;;4976228;28;20144;-92
2022/12/31 14:05:03;;;;;;;;;;;;;;;;;;;;;
2022/12/31 14:08:08;;;;;;;;;;;;;;;;;;;;;
2022/12/31 14:11:14;;;;;;;8.50;3.22;;;14.20;99.90;;;;;;5036775;28;20067;-91
2022/12/31 14:14:15;;;;;;;4.22;1.73;;;14.30;99.90;;;;;;5067425;28;20036;-89
2022/12/31 14:17:10;;;;;;;5.38;2.30;;;14.30;99.90;;;;;;5068578;28;20040;-88
2022/12/31 14:20:07;;;;;;;7.07;2.63;;;14.30;99.90;;;;;;5074000;28;20028;-89
2022/12/31 14:23:05;;;;;;;5.85;2.05;;;14.30;99.90;;;;;;5070129;28;20051;-89
2022/12/31 14:25:54;;;;;;;8.75;2.03;;;14.40;99.90;;;;;;5047879;28;20051;-89
2022/12/31 14:28:51;;;;;;;8.02;2.60;;;14.40;99.90;;;;;;5063899;28;20039;-89
2022/12/31 14:31:25;;;;;;;7.60;2.92;;;14.50;99.90;;;;;;5073553;28;20032;-90
2022/12/31 14:34:08;;;;;;;;;;;14.50;99.90;;;;;;5059005;28;20186;-90
2022/12/31 14:37:09;;;;;;;9.23;4.78;;;14.50;99.90;;;;;;5073980;28;19907;-91
2022/12/31 14:40:36;;;;;;;9.50;4.65;;;14.60;99.90;;;;;;5070362;28;20020;-90
2022/12/31 14:43:21;;;;;;;6.53;2.70;;;14.60;99.90;;;;;;5019610;28;20499;-90
2022/12/31 14:46:37;;;;;;;11.30;4.15;;;14.60;99.90;;;;;;5070005;28;20028;-92
2022/12/31 14:49:29;;;;;;;18.60;13.13;;;14.60;99.90;;;;;;4987945;28;20123;-91
2022/12/31 14:52:14;;;;;;;15.90;7.88;;;14.70;99.90;;;;;;5076809;28;20119;-92
2022/12/31 14:55:42;;;;;;;;;;;;;;;;;;;;;
2022/12/31 15:02:33;;;;;;;;;;;;;;;;;;;;;
2022/12/31 15:09:01;;;;;;;;;;;;;;;;;;;;;
2022/12/31 15:15:44;;;;;;;9.80;3.28;;;14.80;99.90;;;;;;4928715;29;20468;-93
2022/12/31 15:19:08;;;;;;;11.15;3.50;;;14.80;99.90;;;;;;5096727;28;20343;-93
2022/12/31 15:22:23;;;;;;;8.95;3.92;;;14.80;99.90;;;;;;5055907;28;20493;-93